Main page
METAR-TAF:

METAR-TAF

Airports :

Yacuiba Airport

Yacuíba, Bolivia

latitude: 21-57S, longitude: 063-39W, elevation: 645 m

Current weather observation

The report was made 10 hours and 20 minutes ago, at 20:00 UTC
Wind 5 kt from the Northeast
Temperature 31°C
Humidity 49%
Pressure 1008 hPa
Visibility 10 km or more
Few clouds at a height of 2500 ft
Scattered clouds at a height of 20000 ft

METAR: SLYA 072000Z 04005KT 9999 FEW025 SCT200 31/19 Q1008

Time: 02:20 (06:20 UTC)

Forecast

The report was made 8 hours and 20 minutes ago, at 22:00 UTC
Forecast valid from 08 at 00 UTC to 08 at 24 UTC
Wind kt from the North
Visibility 10 km or more
Few clouds at a height of 2000 ft
Scattered clouds at a height of 7000 ft
Becoming
from 08 at 14 UTC to 08 at 16 UTC
Wind 10 kt from the North/Northeast
Few clouds at a height of 2300 ft

TAF: SLYA 072200Z 0800/0824 00000KT 9999 FEW020 SCT070 TX32/0819Z TN22/0810Z BECMG 0814/0816 03010KT FEW023

Weather observations and forecasts of more than 4000 airports (METAR and TAF reports).

The available stations are represented by yellow and red dots on the map.

Hover mouse over dot to see the name of the station.

Then click to see weather observations and forecasts.

To change the map : click on the green buttons with a black cross to zoom in, on the green button with a dash to zoom out, or on the green arrows for adjacent maps.


METAR-TAF: